Time;durP1;ratioP1;P1;durP2;ratioP2;P2;SDS_P1;SDS_P2;PMS_P1;PMS_P2;Temp;Humidity;BMP_temperature;BMP_pressure;BME280_temperature;BME280_humidity;BME280_pressure;Samples;Min_cycle;Max_cycle;Signal;HPM_P1;HPM_P2
2023/07/11 00:02:03;;;;;;;15.32;6.25;;;;;;;20.01;100.00;98516.63;5014557;28;20053;-79
2023/07/11 00:04:46;;;;;;;13.20;5.70;;;;;;;19.96;100.00;98508.63;5014758;28;20064;-81
2023/07/11 00:07:30;;;;;;;16.52;5.63;;;;;;;19.93;100.00;98512.63;4998996;28;20048;-80
2023/07/11 00:10:19;;;;;;;21.25;6.53;;;;;;;19.88;100.00;98506.50;4999191;28;20099;-81
2023/07/11 00:13:03;;;;;;;14.75;6.38;;;;;;;20.05;100.00;98501.72;5012689;28;20052;-81
2023/07/11 00:16:01;;;;;;;18.70;6.85;;;;;;;20.21;100.00;98496.31;4998422;28;20172;-81
2023/07/11 00:18:45;;;;;;;14.45;6.53;;;;;;;20.20;100.00;98481.41;5000280;28;20430;-81
2023/07/11 00:21:29;;;;;;;15.02;6.93;;;;;;;20.23;100.00;98486.19;5013768;28;20400;-81
2023/07/11 00:24:14;;;;;;;17.05;7.60;;;;;;;20.23;100.00;98492.31;5013530;28;20097;-81
2023/07/11 00:26:58;;;;;;;15.32;6.68;;;;;;;20.32;100.00;98481.09;5014227;28;20140;-81
2023/07/11 00:29:42;;;;;;;17.67;6.95;;;;;;;20.40;100.00;98483.97;4997933;28;20065;-80
2023/07/11 00:32:26;;;;;;;14.60;7.25;;;;;;;20.39;100.00;98477.06;5013941;28;20499;-80
2023/07/11 00:35:10;;;;;;;13.52;7.95;;;;;;;20.37;100.00;98465.88;4995894;28;20096;-80
2023/07/11 00:37:54;;;;;;;16.10;7.90;;;;;;;20.50;100.00;98469.81;5012626;28;20092;-80
2023/07/11 00:40:40;;;;;;;13.57;7.20;;;;;;;20.77;100.00;98478.47;4998213;28;20088;-80
2023/07/11 00:43:24;;;;;;;13.73;7.40;;;;;;;20.68;100.00;98459.59;4998486;28;20124;-80
2023/07/11 00:46:17;;;;;;;13.32;7.45;;;;;;;20.74;100.00;98463.84;5013347;28;20507;-80
2023/07/11 00:49:02;;;;;;;15.52;7.55;;;;;;;20.75;100.00;98448.63;5011904;28;20458;-81
2023/07/11 00:51:56;;;;;;;16.90;7.60;;;;;;;20.82;100.00;98443.78;5012998;28;20077;-80
2023/07/11 00:54:42;;;;;;;13.03;7.67;;;;;;;20.74;100.00;98434.50;5012363;28;20096;-80
2023/07/11 00:57:32;;;;;;;11.85;7.35;;;;;;;20.74;100.00;98421.16;5013084;28;20389;-79
2023/07/11 01:00:16;;;;;;;13.57;7.07;;;;;;;20.79;100.00;98418.47;5011929;28;20451;-79
2023/07/11 01:03:01;;;;;;;13.27;7.28;;;;;;;20.83;100.00;98419.53;5012787;28;20527;-80
2023/07/11 01:05:45;;;;;;;15.18;7.00;;;;;;;20.77;100.00;98414.47;5011441;28;20048;-81
2023/07/11 01:08:29;;;;;;;15.90;7.72;;;;;;;20.69;100.00;98416.66;5011724;28;20100;-81
2023/07/11 01:11:13;;;;;;;11.95;7.22;;;;;;;20.77;100.00;98398.47;5012460;28;20139;-80
2023/07/11 01:13:57;;;;;;;15.73;7.53;;;;;;;20.74;100.00;98393.69;5011306;28;20040;-81
2023/07/11 01:16:45;;;;;;;13.43;6.88;;;;;;;20.87;100.00;98393.09;5012558;28;20136;-80
2023/07/11 01:19:30;;;;;;;11.00;6.90;;;;;;;20.81;100.00;98389.69;5012347;28;20040;-81
2023/07/11 01:22:14;;;;;;;12.52;6.80;;;;;;;20.88;100.00;98384.03;5010694;28;20132;-81
2023/07/11 01:25:09;;;;;;;15.30;7.30;;;;;;;20.80;100.00;98356.06;5012233;28;20502;-81
2023/07/11 01:27:53;;;;;;;13.35;6.80;;;;;;;20.69;100.00;98359.84;4997345;28;20048;-80
2023/07/11 01:30:37;;;;;;;13.95;7.40;;;;;;;20.61;100.00;98347.13;5011933;28;20100;-81
2023/07/11 01:33:24;;;;;;;13.38;7.03;;;;;;;20.41;100.00;98341.63;5012086;28;20088;-80
2023/07/11 01:36:09;;;;;;;13.55;6.97;;;;;;;20.48;100.00;98332.56;5011997;28;20435;-81
2023/07/11 01:38:53;;;;;;;11.98;7.22;;;;;;;20.51;100.00;98332.78;5012228;28;20120;-81
2023/07/11 01:41:37;;;;;;;11.90;7.32;;;;;;;20.68;100.00;98332.41;4996931;28;20049;-81
2023/07/11 01:44:22;;;;;;;15.10;7.80;;;;;;;20.62;100.00;98338.84;5012196;28;20396;-81
2023/07/11 01:47:07;;;;;;;20.13;8.10;;;;;;;20.73;100.00;98333.44;5010989;28;20049;-79
2023/07/11 01:49:52;;;;;;;11.18;8.10;;;;;;;20.78;100.00;98315.53;4995944;28;20095;-79
2023/07/11 01:52:36;;;;;;;13.75;7.75;;;;;;;20.75;100.00;98316.09;5011763;28;20108;-82
2023/07/11 01:55:20;;;;;;;12.02;7.53;;;;;;;20.71;100.00;98319.59;4996889;28;20064;-80
2023/07/11 01:58:04;;;;;;;17.77;9.20;;;;;;;20.62;100.00;98306.84;5012273;28;20945;-79
2023/07/11 02:00:49;;;;;;;13.23;7.63;;;;;;;20.55;100.00;98291.19;5011870;28;20033;-80
2023/07/11 02:03:33;;;;;;;17.35;8.45;;;;;;;20.54;100.00;98283.44;5011872;28;20045;-80
2023/07/11 02:06:17;;;;;;;13.45;7.72;;;;;;;20.48;100.00;98268.59;5011743;28;20041;-83
2023/07/11 02:09:02;;;;;;;13.07;7.90;;;;;;;20.57;100.00;98268.78;4998024;28;20391;-81
2023/07/11 02:11:47;;;;;;;12.40;8.18;;;;;;;20.63;100.00;98265.78;5012092;28;20107;-80
2023/07/11 02:14:31;;;;;;;12.15;7.85;;;;;;;20.75;100.00;98269.94;4996491;28;20040;-80
2023/07/11 02:17:15;;;;;;;17.02;8.00;;;;;;;20.51;100.00;98252.03;5010946;28;20373;-79
2023/07/11 02:19:59;;;;;;;14.18;7.22;;;;;;;20.47;100.00;98248.34;5011099;28;20464;-80
2023/07/11 02:22:43;;;;;;;12.13;6.35;;;;;;;20.48;100.00;98239.25;5011143;28;20446;-80
2023/07/11 02:25:27;;;;;;;9.48;6.93;;;;;;;20.61;100.00;98243.16;5011476;28;20041;-83
2023/07/11 02:28:11;;;;;;;11.40;7.47;;;;;;;20.67;100.00;98239.34;5011219;28;20045;-79
2023/07/11 02:30:55;;;;;;;10.25;7.03;;;;;;;20.78;100.00;98234.72;5010232;28;20044;-78
2023/07/11 02:33:39;;;;;;;12.02;6.80;;;;;;;20.72;100.00;98225.19;5010596;28;20505;-79
2023/07/11 02:36:23;;;;;;;10.27;6.03;;;;;;;20.68;100.00;98216.94;5010989;28;20566;-81
2023/07/11 02:39:07;;;;;;;8.70;5.63;;;;;;;20.76;100.00;98210.19;5009918;28;20133;-78
2023/07/11 02:41:51;;;;;;;11.52;5.90;;;;;;;20.63;100.00;98217.78;4995974;28;20538;-79
2023/07/11 02:44:35;;;;;;;5.85;4.85;;;;;;;20.81;100.00;98215.50;5011117;28;20060;-79
2023/07/11 02:47:19;;;;;;;6.72;5.30;;;;;;;20.65;100.00;98210.31;5011082;28;20044;-79
2023/07/11 02:50:04;;;;;;;7.20;4.68;;;;;;;20.75;100.00;98198.75;4995938;28;20041;-80
2023/07/11 02:52:48;;;;;;;7.78;5.00;;;;;;;20.82;100.00;98199.25;5009923;28;20459;-80
2023/07/11 02:55:32;;;;;;;6.93;4.78;;;;;;;20.76;100.00;98194.19;5011636;28;20107;-80
2023/07/11 02:58:17;;;;;;;6.72;4.90;;;;;;;20.82;100.00;98195.75;5010886;28;20044;-81
2023/07/11 03:01:02;;;;;;;6.43;5.07;;;;;;;20.80;100.00;98190.72;5010204;28;20045;-80
2023/07/11 03:03:46;;;;;;;6.68;4.70;;;;;;;20.84;100.00;98196.28;5010833;28;20037;-80
2023/07/11 03:06:30;;;;;;;6.53;4.78;;;;;;;20.73;100.00;98197.44;5010947;28;20104;-80
2023/07/11 03:09:14;;;;;;;5.85;4.82;;;;;;;20.62;100.00;98194.09;4996241;28;20037;-81
2023/07/11 03:11:58;;;;;;;6.85;4.93;;;;;;;20.76;100.00;98191.53;5010985;28;20053;-80
2023/07/11 03:14:42;;;;;;;5.72;4.75;;;;;;;20.72;100.00;98161.19;4995584;28;20104;-80
2023/07/11 03:17:26;;;;;;;7.18;5.05;;;;;;;20.63;100.00;98169.78;5010132;28;20037;-79
2023/07/11 03:20:10;;;;;;;7.22;5.22;;;;;;;20.62;100.00;98180.75;5010655;28;20502;-80
2023/07/11 03:22:55;;;;;;;5.63;4.88;;;;;;;20.59;100.00;98171.44;4995431;28;20081;-80
2023/07/11 03:25:40;;;;;;;5.75;4.45;;;;;;;20.69;100.00;98163.34;5010565;28;20096;-80
2023/07/11 03:28:24;;;;;;;6.00;5.13;;;;;;;20.65;100.00;98167.66;5011304;28;20080;-80
2023/07/11 03:31:09;;;;;;;6.40;5.10;;;;;;;20.65;100.00;98159.66;5010843;28;20092;-80
2023/07/11 03:33:52;;;;;;;7.72;5.28;;;;;;;20.88;100.00;98164.50;5013869;28;20048;-80
2023/07/11 03:36:38;;;;;;;6.22;4.13;;;;;;;20.95;100.00;98163.09;4999822;28;20419;-80
2023/07/11 03:39:24;;;;;;;4.20;3.80;;;;;;;20.81;100.00;98159.50;5014647;28;20064;-79
2023/07/11 03:42:08;;;;;;;4.28;3.88;;;;;;;20.56;100.00;98193.31;5014793;28;21951;-83
2023/07/11 03:44:52;;;;;;;7.40;3.30;;;;;;;20.47;100.00;98165.72;5015743;28;20100;-81
2023/07/11 03:47:36;;;;;;;4.30;3.47;;;;;;;20.49;100.00;98136.91;4998471;28;20125;-81
2023/07/11 03:50:20;;;;;;;2.97;2.20;;;;;;;20.56;100.00;98148.00;5014578;28;22020;-83
2023/07/11 03:53:05;;;;;;;2.45;2.20;;;;;;;20.52;100.00;98137.09;5000119;28;20073;-81
2023/07/11 03:55:49;;;;;;;3.65;2.30;;;;;;;20.69;100.00;98152.69;5013902;28;20455;-82
2023/07/11 03:58:33;;;;;;;3.28;2.30;;;;;;;20.49;100.00;98143.00;4999343;28;20060;-81
2023/07/11 04:01:18;;;;;;;2.75;2.35;;;;;;;20.39;100.00;98156.44;5014008;28;20416;-80
2023/07/11 04:04:02;;;;;;;3.90;1.80;;;;;;;20.54;100.00;98155.50;5013586;28;20447;-80
2023/07/11 04:06:46;;;;;;;2.30;1.90;;;;;;;20.23;100.00;98153.91;5013652;28;20041;-80
2023/07/11 04:09:30;;;;;;;1.80;1.70;;;;;;;20.30;100.00;98145.59;5014088;28;20506;-81
2023/07/11 04:12:14;;;;;;;2.47;2.00;;;;;;;20.24;100.00;98138.72;5013977;28;20080;-81
2023/07/11 04:14:58;;;;;;;3.38;2.00;;;;;;;20.25;100.00;98153.66;5014242;28;20045;-81
2023/07/11 04:17:42;;;;;;;3.25;2.70;;;;;;;20.44;100.00;98147.59;5013584;28;20100;-81
2023/07/11 04:20:26;;;;;;;4.10;3.05;;;;;;;20.36;100.00;98149.00;5013899;28;20055;-81
2023/07/11 04:23:10;;;;;;;1.85;1.67;;;;;;;20.64;100.00;98147.41;5013851;28;20056;-81
2023/07/11 04:25:54;;;;;;;2.35;1.15;;;;;;;20.78;100.00;98133.38;4998801;28;20056;-81
2023/07/11 04:28:38;;;;;;;1.00;0.90;;;;;;;20.87;100.00;98137.06;4998375;28;20152;-80
2023/07/11 04:31:22;;;;;;;1.10;0.75;;;;;;;20.71;100.00;98132.94;5013216;28;20112;-80
2023/07/11 04:34:06;;;;;;;0.85;0.85;;;;;;;20.78;100.00;98133.38;5013565;28;20115;-80
2023/07/11 04:36:50;;;;;;;1.25;0.95;;;;;;;20.75;100.00;98133.94;5014161;28;20506;-80
2023/07/11 04:39:34;;;;;;;1.65;1.08;;;;;;;20.90;100.00;98130.34;5013859;28;20107;-80
2023/07/11 04:42:18;;;;;;;3.20;1.15;;;;;;;20.74;100.00;98133.16;4998379;28;20064;-81
2023/07/11 04:45:02;;;;;;;1.10;1.00;;;;;;;20.56;100.00;98132.00;5011912;28;20087;-81
2023/07/11 04:47:46;;;;;;;1.25;1.15;;;;;;;20.65;100.00;98140.19;5013559;28;20113;-83
2023/07/11 04:50:31;;;;;;;1.30;1.20;;;;;;;20.69;100.00;98120.69;4998539;28;20048;-83
2023/07/11 04:53:16;;;;;;;1.30;1.20;;;;;;;20.63;100.00;98121.78;5012557;28;20096;-83
2023/07/11 04:56:06;;;;;;;1.70;1.60;;;;;;;20.75;100.00;98136.63;4998223;28;20048;-83
2023/07/11 04:58:50;;;;;;;2.22;1.52;;;;;;;20.40;100.00;98123.38;5012857;28;20044;-83
2023/07/11 05:01:34;;;;;;;2.90;1.63;;;;;;;20.65;100.00;98133.00;4998220;28;20172;-83
2023/07/11 05:04:18;;;;;;;1.67;1.58;;;;;;;20.62;100.00;98136.19;4998221;28;20049;-84
2023/07/11 05:07:04;;;;;;;3.15;1.50;;;;;;;20.63;100.00;98118.34;5013289;28;20590;-83
2023/07/11 05:09:48;;;;;;;1.85;1.65;;;;;;;20.95;100.00;98123.06;5012920;28;20108;-82
2023/07/11 05:12:32;;;;;;;3.80;1.50;;;;;;;20.81;100.00;98138.16;4997814;28;20045;-84
2023/07/11 05:15:16;;;;;;;1.65;1.52;;;;;;;20.44;100.00;98137.72;5012769;28;20124;-86
2023/07/11 05:18:00;;;;;;;1.95;1.63;;;;;;;20.69;100.00;98120.69;5012721;28;20510;-82
2023/07/11 05:20:52;;;;;;;1.92;1.60;;;;;;;20.93;100.00;98130.56;4997807;28;20093;-82
2023/07/11 05:23:37;;;;;;;1.73;1.40;;;;;;;20.94;100.00;98137.50;5012612;28;20096;-83
2023/07/11 05:26:22;;;;;;;1.40;1.23;;;;;;;21.12;100.00;98121.81;4997740;28;20045;-82
2023/07/11 05:29:06;;;;;;;2.97;1.60;;;;;;;21.10;100.00;98118.63;5012108;28;20069;-82
2023/07/11 05:31:50;;;;;;;2.05;1.65;;;;;;;21.15;100.00;98121.22;4997201;28;20040;-83
2023/07/11 05:34:34;;;;;;;2.30;1.65;;;;;;;21.21;100.00;98136.06;4998438;28;20400;-82
2023/07/11 05:37:18;;;;;;;2.00;1.70;;;;;;;21.00;100.00;98137.41;4991977;28;20644;-81
2023/07/11 05:40:02;;;;;;;2.47;1.42;;;;;;;21.34;100.00;98139.13;5011289;28;20844;-82
2023/07/11 05:42:46;;;;;;;1.65;1.55;;;;;;;21.26;100.00;98130.69;4996954;28;20041;-82
2023/07/11 05:45:30;;;;;;;3.30;2.05;;;;;;;21.04;100.00;98136.56;5012022;28;20087;-82
2023/07/11 05:48:14;;;;;;;1.85;1.50;;;;;;;20.96;100.00;98145.22;4997631;28;20092;-83
2023/07/11 05:51:06;;;;;;;1.88;1.40;;;;;;;21.14;100.00;98127.66;5011514;28;20510;-82
2023/07/11 05:53:50;;;;;;;2.20;1.30;;;;;;;21.47;100.00;98138.41;4997156;28;20048;-83
2023/07/11 05:56:35;;;;;;;5.93;1.10;;;;;;;21.44;100.00;98131.00;5010773;28;20092;-83
2023/07/11 05:59:19;;;;;;;1.30;1.20;;;;;;;21.49;100.00;98130.09;4997080;28;20108;-83
2023/07/11 06:02:04;;;;;;;1.40;1.15;;;;;;;21.49;100.00;98143.47;4996693;28;20053;-83
2023/07/11 06:04:48;;;;;;;2.03;1.10;;;;;;;21.09;100.00;98154.41;5011975;28;20033;-81
2023/07/11 06:07:34;;;;;;;2.28;1.08;;;;;;;21.39;100.00;98155.06;5011877;28;20057;-82
2023/07/11 06:10:18;;;;;;;1.48;1.38;;;;;;;21.34;100.00;98163.16;5011739;28;20072;-82
2023/07/11 06:13:02;;;;;;;1.67;1.00;;;;;;;21.44;100.00;98163.03;4998936;28;20419;-81
2023/07/11 06:15:45;;;;;;;1.45;1.00;;;;;;;21.22;100.00;98172.38;5012061;28;20585;-84
2023/07/11 06:18:32;;;;;;;2.80;1.20;;;;;;;20.96;100.00;98182.56;5012005;28;20045;-81
2023/07/11 06:21:16;;;;;;;1.83;1.20;;;;;;;21.43;100.00;98185.47;5015052;28;20415;-88
2023/07/11 06:24:01;;;;;;;2.90;1.30;;;;;;;21.95;100.00;98192.75;5012359;28;20221;-86
2023/07/11 06:26:45;;;;;;;2.80;2.60;;;;;;;22.21;100.00;98179.81;4996689;28;20510;-86
2023/07/11 06:29:30;;;;;;;2.33;2.05;;;;;;;21.72;100.00;98186.44;5015777;28;20110;-84
2023/07/11 06:32:14;;;;;;;4.88;2.30;;;;;;;21.94;100.00;98188.50;5014715;28;20041;-84
2023/07/11 06:34:58;;;;;;;3.25;2.10;;;;;;;22.05;100.00;98187.28;5000076;28;20060;-88
2023/07/11 06:37:41;;;;;;;;;;;;;;;21.86;100.00;98197.19;5014103;28;20446;-84
2023/07/11 06:40:25;;;;;;;2.40;2.20;;;;;;;21.82;100.00;98191.63;5013574;28;19920;-82
2023/07/11 06:43:09;;;;;;;2.78;2.50;;;;;;;22.07;100.00;98190.44;5013929;28;20044;-86
2023/07/11 06:45:56;;;;;;;3.63;3.00;;;;;;;22.06;100.00;98193.41;4998663;28;20049;-84
2023/07/11 06:48:41;;;;;;;2.78;2.58;;;;;;;22.18;100.00;98184.94;4998217;28;20550;-84
2023/07/11 06:51:25;;;;;;;4.50;2.83;;;;;;;22.17;100.00;98183.34;4998024;28;20510;-83
2023/07/11 06:54:10;;;;;;;2.10;1.88;;;;;;;21.83;100.00;98204.69;4995498;28;20084;-83
2023/07/11 06:56:54;;;;;;;5.03;2.15;;;;;;;21.75;100.00;98202.66;4996926;28;20037;-83
2023/07/11 06:59:39;;;;;;;1.92;1.70;;;;;;;21.72;100.00;98203.25;5011385;28;20037;-84
2023/07/11 07:02:23;;;;;;;2.83;1.95;;;;;;;21.82;100.00;98219.16;4997612;28;20454;-85
2023/07/11 07:05:07;;;;;;;5.00;1.60;;;;;;;21.92;100.00;98225.41;5011706;28;20070;-85
2023/07/11 07:07:51;;;;;;;3.17;1.92;;;;;;;22.13;100.00;98217.09;4995063;28;20505;-84
2023/07/11 07:10:35;;;;;;;2.65;2.03;;;;;;;22.30;100.00;98230.72;4997266;28;20399;-84
2023/07/11 07:13:21;;;;;;;3.40;2.13;;;;;;;22.20;100.00;98228.19;5012459;28;20057;-86
2023/07/11 07:16:06;;;;;;;2.92;2.15;;;;;;;22.17;100.00;98218.91;4996576;28;20052;-85
2023/07/11 07:18:50;;;;;;;2.25;1.85;;;;;;;22.26;100.00;98216.34;4997615;28;20048;-82
2023/07/11 07:21:34;;;;;;;2.22;2.03;;;;;;;22.53;100.00;98233.56;4996929;28;20089;-82
2023/07/11 07:24:17;;;;;;;2.45;2.00;;;;;;;22.51;100.00;98230.41;4992894;28;20237;-81
2023/07/11 07:27:03;;;;;;;2.58;2.25;;;;;;;22.63;100.00;98230.75;4995833;28;20080;-81
2023/07/11 07:29:46;;;;;;;3.40;3.10;;;;;;;22.52;100.00;98223.97;5012242;28;20041;-82
2023/07/11 07:32:30;;;;;;;4.10;3.70;;;;;;;22.46;100.00;98219.78;4996342;28;20041;-81
2023/07/11 07:35:14;;;;;;;4.97;4.47;;;;;;;22.48;100.00;98222.97;5012120;28;20088;-82
2023/07/11 07:37:58;;;;;;;6.32;4.68;;;;;;;22.50;100.00;98226.16;4995233;28;20053;-84
2023/07/11 07:40:42;;;;;;;5.65;5.20;;;;;;;22.10;100.00;98232.63;4994296;28;20088;-84
2023/07/11 07:43:27;;;;;;;5.45;4.95;;;;;;;22.63;100.00;98213.88;4997512;28;20037;-84
2023/07/11 07:46:15;;;;;;;5.63;5.13;;;;;;;22.26;100.00;98211.00;4997427;28;20128;-84
2023/07/11 07:48:59;;;;;;;5.60;5.20;;;;;;;22.03;100.00;98213.50;4997695;28;20057;-84
2023/07/11 07:51:43;;;;;;;6.18;5.57;;;;;;;22.50;100.00;98228.81;4997710;28;20049;-84
2023/07/11 07:54:27;;;;;;;6.35;5.80;;;;;;;22.78;100.00;98239.56;5012526;28;20111;-86
2023/07/11 07:57:14;;;;;;;6.70;6.10;;;;;;;22.70;100.00;98234.91;5013786;28;20096;-87
2023/07/11 07:59:58;;;;;;;6.47;5.97;;;;;;;23.05;99.39;98241.47;4997656;28;20048;-83
2023/07/11 08:02:43;;;;;;;6.82;6.25;;;;;;;23.31;96.77;98227.63;5012172;28;20077;-85
2023/07/11 08:05:28;;;;;;;6.68;6.07;;;;;;;23.43;96.39;98227.13;4997549;28;21195;-83
2023/07/11 08:08:12;;;;;;;8.05;7.35;;;;;;;23.91;92.98;98220.47;4997109;28;20045;-85
2023/07/11 08:11:00;;;;;;;7.78;7.10;;;;;;;23.91;90.51;98222.34;4996654;28;20096;-81
2023/07/11 08:13:44;;;;;;;7.07;6.47;;;;;;;23.62;90.11;98231.56;5007944;28;20446;-81
2023/07/11 08:16:29;;;;;;;7.70;6.90;;;;;;;23.96;91.33;98227.56;5010534;28;20396;-85
2023/07/11 08:19:13;;;;;;;6.45;5.88;;;;;;;23.32;90.48;98245.28;4998057;28;20053;-85
2023/07/11 08:21:58;;;;;;;6.00;5.43;;;;;;;23.72;91.57;98234.00;5001198;28;20048;-85
2023/07/11 08:24:42;;;;;;;5.90;5.40;;;;;;;23.71;91.00;98243.13;5013817;28;20388;-82
2023/07/11 08:27:26;;;;;;;5.97;5.45;;;;;;;24.25;89.74;98237.13;5001060;28;20127;-85
2023/07/11 08:30:10;;;;;;;5.00;4.50;;;;;;;24.16;90.04;98228.22;5015512;28;20053;-84
2023/07/11 08:32:54;;;;;;;4.50;3.80;;;;;;;23.61;90.29;98235.34;5000930;28;20076;-85
2023/07/11 08:35:41;;;;;;;4.25;3.50;;;;;;;24.13;89.14;98232.31;5015601;28;20048;-82
2023/07/11 08:38:25;;;;;;;3.38;2.40;;;;;;;24.27;88.22;98228.78;5015314;28;20040;-83
2023/07/11 08:41:30;;;;;;;2.60;2.30;;;;;;;24.83;86.92;98221.22;5015629;28;20530;-82
2023/07/11 08:44:31;;;;;;;4.60;2.30;;;;;;;25.24;86.38;98228.16;5012984;28;20033;-82
2023/07/11 08:47:23;;;;;;;2.35;1.73;;;;;;;25.23;84.61;98226.59;5013119;28;20133;-83
2023/07/11 08:50:21;;;;;;;3.97;1.85;;;;;;;24.87;84.68;98230.25;5007444;28;20048;-83
2023/07/11 08:53:13;;;;;;;3.35;1.83;;;;;;;24.86;84.79;98231.34;5017215;28;20536;-82
2023/07/11 08:56:20;;;;;;;2.25;1.60;;;;;;;24.13;84.19;98226.16;5017265;28;20045;-83
2023/07/11 08:59:08;;;;;;;3.58;1.75;;;;;;;24.51;83.54;98225.78;5015162;28;20056;-83
2023/07/11 09:02:17;;;;;;;2.35;1.55;;;;;;;24.73;82.75;98221.47;5017655;28;20040;-83
2023/07/11 09:05:03;;;;;;;6.97;2.10;;;;;;;25.04;82.92;98212.63;5016806;28;20044;-83
2023/07/11 09:07:47;;;;;;;3.75;1.83;;;;;;;25.53;83.09;98216.06;5017808;28;20041;-83
2023/07/11 09:10:45;;;;;;;2.72;1.80;;;;;;;25.70;81.41;98217.19;5009478;28;20503;-84
2023/07/11 09:13:59;;;;;;;2.40;1.83;;;;;;;24.92;81.27;98218.59;5005272;28;20526;-84
2023/07/11 09:16:50;;;;;;;3.22;1.98;;;;;;;25.01;80.12;98214.03;5019770;28;20040;-83
2023/07/11 09:19:38;;;;;;;2.95;1.50;;;;;;;25.32;80.04;98210.50;5015986;28;20125;-83
2023/07/11 09:22:44;;;;;;;4.55;1.80;;;;;;;24.80;80.05;98213.81;5018374;28;20064;-84
2023/07/11 09:25:35;;;;;;;5.32;1.70;;;;;;;25.18;80.09;98221.38;5006142;28;20443;-84
2023/07/11 09:28:25;;;;;;;3.30;2.10;;;;;;;25.49;81.01;98217.03;5005413;28;20044;-84
2023/07/11 09:31:16;;;;;;;3.47;2.08;;;;;;;26.19;79.60;98210.88;5018177;28;20115;-84
2023/07/11 09:34:05;;;;;;;2.35;1.77;;;;;;;26.13;79.24;98209.44;5015770;28;20049;-83
2023/07/11 09:36:49;;;;;;;3.33;1.60;;;;;;;26.05;78.57;98222.56;5004344;28;20040;-84
2023/07/11 09:39:40;;;;;;;2.83;1.52;;;;;;;26.33;77.37;98208.00;5003587;28;20045;-84
2023/07/11 09:42:48;;;;;;;2.72;1.90;;;;;;;26.55;75.71;98225.84;5003647;28;20096;-83
2023/07/11 09:45:35;;;;;;;2.58;1.73;;;;;;;26.16;75.62;98222.25;5017581;28;20100;-82
2023/07/11 09:48:30;;;;;;;2.13;1.60;;;;;;;26.67;74.85;98212.50;5003861;28;20535;-83
2023/07/11 09:51:30;;;;;;;2.47;2.13;;;;;;;26.81;74.34;98214.97;5020540;28;20176;-83
2023/07/11 09:54:22;;;;;;;2.63;1.90;;;;;;;27.25;75.44;98224.78;5001719;28;20096;-83
2023/07/11 09:57:10;;;;;;;2.30;1.87;;;;;;;26.93;74.01;98221.63;5016419;28;20048;-85
2023/07/11 10:00:00;;;;;;;4.60;1.80;;;;;;;26.97;73.52;98227.16;5017269;28;20045;-85
2023/07/11 10:02:46;;;;;;;3.08;1.70;;;;;;;27.03;73.70;98205.09;5001890;28;20092;-84
2023/07/11 10:05:30;;;;;;;2.67;1.80;;;;;;;27.42;73.44;98205.03;5012014;28;20053;-84
2023/07/11 10:08:43;;;;;;;2.17;1.95;;;;;;;27.59;72.00;98206.84;5017751;28;20076;-85
2023/07/11 10:11:30;;;;;;;6.45;1.90;;;;;;;27.96;73.64;98206.25;5016532;28;20610;-85
2023/07/11 10:14:17;;;;;;;5.32;1.92;;;;;;;28.63;70.22;98206.19;5015492;28;20615;-86
2023/07/11 10:17:17;;;;;;;4.00;1.80;;;;;;;28.73;67.55;98213.06;4996641;28;20056;-86
2023/07/11 10:20:06;;;;;;;2.95;1.85;;;;;;;28.59;68.00;98209.91;5016094;28;20048;-87
2023/07/11 10:22:53;;;;;;;4.55;1.83;;;;;;;29.03;67.52;98215.59;5015553;28;20100;-86
2023/07/11 10:25:37;;;;;;;2.03;1.80;;;;;;;28.86;65.03;98216.59;5010617;28;20060;-86
2023/07/11 10:28:38;;;;;;;3.00;2.05;;;;;;;28.76;65.97;98225.13;5000800;28;20057;-86
2023/07/11 10:31:31;;;;;;;3.22;1.85;;;;;;;28.68;66.37;98217.91;5015946;28;20523;-85
2023/07/11 10:34:23;;;;;;;2.67;2.08;;;;;;;28.44;66.66;98216.75;5009698;28;20076;-84
2023/07/11 10:37:12;;;;;;;3.28;1.95;;;;;;;28.14;65.62;98217.66;5016379;28;20072;-86
2023/07/11 10:40:09;;;;;;;3.17;2.03;;;;;;;28.04;67.92;98223.47;5002576;28;20040;-86
2023/07/11 10:43:06;;;;;;;2.85;2.10;;;;;;;27.57;68.94;98224.47;5001806;28;20100;-86
2023/07/11 10:45:54;;;;;;;3.22;1.95;;;;;;;27.40;69.93;98218.03;5001813;28;20388;-86
2023/07/11 10:48:47;;;;;;;6.93;2.10;;;;;;;27.68;68.63;98214.09;5001486;28;20509;-86
2023/07/11 10:52:19;;;;;;;6.97;2.10;;;;;;;28.35;68.06;98217.63;5016278;28;20404;-84
2023/07/11 10:55:27;;;;;;;3.83;2.05;;;;;;;28.67;66.58;98211.72;5014780;28;20125;-85
2023/07/11 10:58:11;;;;;;;4.50;2.40;;;;;;;28.85;66.33;98212.31;5017238;28;20036;-85
2023/07/11 11:01:04;;;;;;;4.63;2.22;;;;;;;28.84;66.24;98216.16;5001836;28;20089;-86
2023/07/11 11:03:57;;;;;;;2.50;2.13;;;;;;;29.02;67.48;98199.72;5016642;28;20040;-85
2023/07/11 11:06:50;;;;;;;5.03;2.40;;;;;;;29.32;64.94;98204.88;4986531;28;20122;-84
2023/07/11 11:09:42;;;;;;;6.27;2.60;;;;;;;28.55;66.45;98203.59;5017442;28;20077;-86
2023/07/11 11:12:28;;;;;;;3.88;2.50;;;;;;;28.62;66.02;98210.03;5002356;28;20049;-85
2023/07/11 11:15:21;;;;;;;5.53;2.47;;;;;;;28.45;65.57;98196.72;5002258;28;20045;-84
2023/07/11 11:18:38;;;;;;;6.55;3.22;;;;;;;28.78;66.88;98201.28;5001927;28;20180;-85
2023/07/11 11:21:55;;;;;;;10.65;3.78;;;;;;;28.18;65.66;98207.00;5001836;28;20133;-84
2023/07/11 11:25:00;;;;;;;6.75;3.05;;;;;;;28.89;65.37;98204.34;5015888;28;20518;-85
2023/07/11 11:28:05;;;;;;;8.07;3.30;;;;;;;29.24;62.92;98192.28;5001560;28;20169;-86
2023/07/11 11:31:19;;;;;;;9.15;3.70;;;;;;;29.08;63.75;98191.06;5001931;28;20080;-85
2023/07/11 11:34:47;;;;;;;6.80;3.40;;;;;;;28.50;65.46;98197.31;5001532;28;20049;-84
2023/07/11 11:37:43;;;;;;;5.55;2.95;;;;;;;28.32;66.50;98177.81;5001475;28;20121;-86
2023/07/11 11:40:32;;;;;;;7.30;2.90;;;;;;;28.62;65.71;98188.44;5017017;28;20518;-85
2023/07/11 11:43:24;;;;;;;8.68;3.22;;;;;;;28.84;65.71;98178.34;5017784;28;20041;-85
2023/07/11 11:46:09;;;;;;;5.32;2.65;;;;;;;29.24;65.09;98176.84;4999315;28;20056;-85
2023/07/11 11:48:56;;;;;;;5.93;2.90;;;;;;;29.02;64.95;98178.91;5017216;28;20448;-85
2023/07/11 11:51:43;;;;;;;6.47;2.78;;;;;;;29.47;64.73;98184.50;5017345;28;20044;-84
2023/07/11 11:54:36;;;;;;;7.13;2.95;;;;;;;28.95;63.88;98184.06;5018667;28;20092;-85
2023/07/11 11:57:29;;;;;;;7.53;2.90;;;;;;;29.29;67.54;98192.84;5019713;28;20052;-85
2023/07/11 12:00:34;;;;;;;7.88;3.60;;;;;;;28.36;71.35;98197.63;5005112;28;20112;-84
2023/07/11 12:03:29;;;;;;;5.82;3.10;;;;;;;27.67;69.76;98194.41;5019763;28;20408;-85
2023/07/11 12:06:43;;;;;;;5.25;3.00;;;;;;;27.21;72.96;98183.44;5024612;28;20115;-84
2023/07/11 12:09:33;;;;;;;7.93;3.67;;;;;;;27.03;74.19;98185.47;5014892;28;20076;-85
2023/07/11 12:12:45;;;;;;;5.05;3.50;;;;;;;27.30;75.74;98186.09;5020303;28;20064;-84
2023/07/11 12:15:37;;;;;;;7.75;3.45;;;;;;;27.17;78.26;98182.53;5024786;28;20088;-85
2023/07/11 12:18:26;;;;;;;8.00;4.18;;;;;;;26.86;77.37;98183.66;5013861;28;20491;-85
2023/07/11 12:21:14;;;;;;;6.28;3.20;;;;;;;27.27;79.84;98179.47;5018713;28;20052;-85
2023/07/11 12:24:19;;;;;;;11.27;3.75;;;;;;;27.42;78.67;98175.38;5003492;28;20041;-85
2023/07/11 12:27:09;;;;;;;6.05;3.83;;;;;;;27.79;79.44;98172.91;5002531;28;20044;-85
2023/07/11 12:29:53;;;;;;;6.88;3.55;;;;;;;28.02;79.54;98171.75;5017779;28;20049;-84
2023/07/11 12:32:51;;;;;;;6.68;3.30;;;;;;;28.20;78.03;98167.00;5017632;28;20261;-85
2023/07/11 12:35:36;;;;;;;6.47;3.30;;;;;;;28.74;77.62;98160.66;5018862;28;20056;-85
2023/07/11 12:38:30;;;;;;;4.75;3.25;;;;;;;29.53;75.09;98149.91;5020025;28;20404;-85
2023/07/11 12:41:32;;;;;;;6.18;3.03;;;;;;;29.68;73.68;98151.88;5019788;28;20384;-84
2023/07/11 12:44:17;;;;;;;5.78;3.22;;;;;;;29.91;71.67;98164.84;5019475;28;20134;-86
2023/07/11 12:47:07;;;;;;;5.38;2.90;;;;;;;30.03;71.45;98159.38;5019300;28;20103;-85
2023/07/11 12:49:52;;;;;;;5.10;3.38;;;;;;;29.90;71.60;98161.34;5018414;28;20069;-86
2023/07/11 12:52:36;;;;;;;3.03;2.58;;;;;;;30.08;71.26;98169.19;5019475;28;20550;-85
2023/07/11 12:55:20;;;;;;;4.55;2.88;;;;;;;30.01;70.48;98161.63;5003414;28;20096;-85
2023/07/11 12:58:04;;;;;;;4.35;3.20;;;;;;;29.98;69.32;98173.16;4997444;28;20120;-84
2023/07/11 13:00:50;;;;;;;4.03;2.60;;;;;;;29.63;68.96;98171.03;5014399;28;20048;-85
2023/07/11 13:03:38;;;;;;;5.85;3.00;;;;;;;29.53;69.96;98160.72;5018982;28;20137;-86